sensor_id;sensor_type;location;lat;lon;timestamp;pressure;altitude;pressure_sealevel;temperature;humidity
2681;BME280;1350;42.134;24.708;2023-05-08T00:00:58;99656.81;;;13.73;87.55
2681;BME280;1350;42.134;24.708;2023-05-08T00:03:25;99659.47;;;13.73;86.76
2681;BME280;1350;42.134;24.708;2023-05-08T00:05:53;99659.38;;;13.75;86.89
2681;BME280;1350;42.134;24.708;2023-05-08T00:08:20;99651.00;;;13.81;86.39
2681;BME280;1350;42.134;24.708;2023-05-08T00:10:47;99653.94;;;13.76;86.16
2681;BME280;1350;42.134;24.708;2023-05-08T00:13:14;99661.78;;;13.65;87.40
2681;BME280;1350;42.134;24.708;2023-05-08T00:15:41;99651.47;;;13.73;87.40
2681;BME280;1350;42.134;24.708;2023-05-08T00:18:08;99661.41;;;13.71;87.25
2681;BME280;1350;42.134;24.708;2023-05-08T00:20:34;99658.94;;;13.68;87.38
2681;BME280;1350;42.134;24.708;2023-05-08T00:23:03;99662.19;;;13.59;88.42
2681;BME280;1350;42.134;24.708;2023-05-08T00:25:30;99648.97;;;13.57;89.15
2681;BME280;1350;42.134;24.708;2023-05-08T00:27:57;99651.44;;;13.61;89.12
2681;BME280;1350;42.134;24.708;2023-05-08T00:30:23;99652.28;;;13.47;89.52
2681;BME280;1350;42.134;24.708;2023-05-08T00:32:50;99652.75;;;13.53;88.48
2681;BME280;1350;42.134;24.708;2023-05-08T00:35:17;99658.38;;;13.49;88.87
2681;BME280;1350;42.134;24.708;2023-05-08T00:37:44;99654.50;;;13.40;89.30
2681;BME280;1350;42.134;24.708;2023-05-08T00:40:12;99650.28;;;13.50;89.38
2681;BME280;1350;42.134;24.708;2023-05-08T00:42:39;99655.31;;;13.55;89.30
2681;BME280;1350;42.134;24.708;2023-05-08T00:45:07;99652.38;;;13.45;89.26
2681;BME280;1350;42.134;24.708;2023-05-08T00:47:34;99657.97;;;13.55;89.17
2681;BME280;1350;42.134;24.708;2023-05-08T00:50:01;99669.41;;;13.57;88.55
2681;BME280;1350;42.134;24.708;2023-05-08T00:52:29;99663.50;;;13.52;88.72
2681;BME280;1350;42.134;24.708;2023-05-08T00:54:57;99668.91;;;13.65;88.62
2681;BME280;1350;42.134;24.708;2023-05-08T00:57:26;99670.38;;;13.56;88.04
2681;BME280;1350;42.134;24.708;2023-05-08T00:59:55;99670.28;;;13.57;87.74
2681;BME280;1350;42.134;24.708;2023-05-08T01:02:22;99679.00;;;13.45;88.17
2681;BME280;1350;42.134;24.708;2023-05-08T01:04:51;99675.31;;;13.34;88.27
2681;BME280;1350;42.134;24.708;2023-05-08T01:07:19;99675.03;;;13.38;88.25
2681;BME280;1350;42.134;24.708;2023-05-08T01:09:46;99675.50;;;13.45;88.63
2681;BME280;1350;42.134;24.708;2023-05-08T01:12:18;99686.25;;;13.29;88.05
2681;BME280;1350;42.134;24.708;2023-05-08T01:15:04;99681.41;;;13.36;87.95
2681;BME280;1350;42.134;24.708;2023-05-08T01:17:39;99682.63;;;13.30;87.82
2681;BME280;1350;42.134;24.708;2023-05-08T01:20:25;99681.22;;;13.25;88.33
2681;BME280;1350;42.134;24.708;2023-05-08T01:23:19;99697.00;;;13.28;87.90
2681;BME280;1350;42.134;24.708;2023-05-08T01:29:12;99689.38;;;13.22;88.09
2681;BME280;1350;42.134;24.708;2023-05-08T01:32:08;99695.53;;;13.22;87.84
2681;BME280;1350;42.134;24.708;2023-05-08T01:34:41;99691.00;;;13.24;87.89
2681;BME280;1350;42.134;24.708;2023-05-08T01:37:14;99687.09;;;13.16;88.37
2681;BME280;1350;42.134;24.708;2023-05-08T01:39:44;99686.22;;;13.15;89.17
2681;BME280;1350;42.134;24.708;2023-05-08T01:42:17;99695.81;;;13.04;89.48
2681;BME280;1350;42.134;24.708;2023-05-08T01:44:52;99695.31;;;12.97;90.25
2681;BME280;1350;42.134;24.708;2023-05-08T01:47:25;99688.16;;;12.98;89.31
2681;BME280;1350;42.134;24.708;2023-05-08T01:50:00;99686.91;;;12.89;89.77
2681;BME280;1350;42.134;24.708;2023-05-08T01:52:33;99686.72;;;12.92;90.67
2681;BME280;1350;42.134;24.708;2023-05-08T01:55:03;99686.81;;;12.91;90.25
2681;BME280;1350;42.134;24.708;2023-05-08T01:57:33;99690.72;;;12.85;89.65
2681;BME280;1350;42.134;24.708;2023-05-08T02:00:04;99689.09;;;12.83;89.96
2681;BME280;1350;42.134;24.708;2023-05-08T02:02:35;99696.06;;;12.85;89.59
2681;BME280;1350;42.134;24.708;2023-05-08T02:05:03;99689.84;;;12.85;90.10
2681;BME280;1350;42.134;24.708;2023-05-08T02:07:32;99689.59;;;12.89;90.28
2681;BME280;1350;42.134;24.708;2023-05-08T02:10:03;99679.94;;;12.73;90.67
2681;BME280;1350;42.134;24.708;2023-05-08T02:12:31;99681.84;;;12.71;89.49
2681;BME280;1350;42.134;24.708;2023-05-08T02:15:01;99675.19;;;12.78;90.22
2681;BME280;1350;42.134;24.708;2023-05-08T02:17:29;99677.56;;;12.82;90.10
2681;BME280;1350;42.134;24.708;2023-05-08T02:19:59;99679.31;;;12.83;89.34
2681;BME280;1350;42.134;24.708;2023-05-08T02:22:29;99682.38;;;12.91;88.78
2681;BME280;1350;42.134;24.708;2023-05-08T02:24:58;99685.31;;;12.87;88.94
2681;BME280;1350;42.134;24.708;2023-05-08T02:27:26;99685.13;;;12.90;88.90
2681;BME280;1350;42.134;24.708;2023-05-08T02:29:55;99691.44;;;12.73;89.19
2681;BME280;1350;42.134;24.708;2023-05-08T02:32:24;99685.75;;;12.79;89.55
2681;BME280;1350;42.134;24.708;2023-05-08T02:34:52;99683.06;;;12.79;89.31
2681;BME280;1350;42.134;24.708;2023-05-08T02:37:22;99688.13;;;12.70;89.40
2681;BME280;1350;42.134;24.708;2023-05-08T02:39:50;99691.16;;;12.78;89.04
2681;BME280;1350;42.134;24.708;2023-05-08T02:42:19;99693.03;;;12.91;88.85
2681;BME280;1350;42.134;24.708;2023-05-08T02:44:45;99691.78;;;12.67;87.94
2681;BME280;1350;42.134;24.708;2023-05-08T02:47:17;99691.66;;;12.84;87.73
2681;BME280;1350;42.134;24.708;2023-05-08T02:49:50;99692.56;;;12.69;86.20
2681;BME280;1350;42.134;24.708;2023-05-08T02:52:27;99689.81;;;12.71;86.20
2681;BME280;1350;42.134;24.708;2023-05-08T02:54:58;99695.03;;;12.72;86.23
2681;BME280;1350;42.134;24.708;2023-05-08T02:57:32;99688.84;;;12.72;86.73
2681;BME280;1350;42.134;24.708;2023-05-08T03:00:03;99689.94;;;12.83;86.37
2681;BME280;1350;42.134;24.708;2023-05-08T03:02:34;99694.13;;;12.87;85.88
2681;BME280;1350;42.134;24.708;2023-05-08T03:05:07;99698.63;;;12.87;85.93
2681;BME280;1350;42.134;24.708;2023-05-08T03:07:39;99703.94;;;12.87;85.76
2681;BME280;1350;42.134;24.708;2023-05-08T03:10:10;99700.59;;;12.83;86.07
2681;BME280;1350;42.134;24.708;2023-05-08T03:12:43;99707.41;;;12.73;86.28
2681;BME280;1350;42.134;24.708;2023-05-08T03:15:17;99709.69;;;12.79;85.34
2681;BME280;1350;42.134;24.708;2023-05-08T03:17:45;99701.41;;;12.70;86.36
2681;BME280;1350;42.134;24.708;2023-05-08T03:20:16;99705.97;;;12.68;86.20
2681;BME280;1350;42.134;24.708;2023-05-08T03:22:45;99711.09;;;12.71;86.96
2681;BME280;1350;42.134;24.708;2023-05-08T03:25:16;99710.56;;;12.80;87.25
2681;BME280;1350;42.134;24.708;2023-05-08T03:27:44;99713.34;;;12.63;86.46
2681;BME280;1350;42.134;24.708;2023-05-08T03:30:12;99712.53;;;12.76;86.52
2681;BME280;1350;42.134;24.708;2023-05-08T03:32:41;99724.09;;;12.91;85.72
2681;BME280;1350;42.134;24.708;2023-05-08T03:35:10;99724.00;;;12.92;84.29
2681;BME280;1350;42.134;24.708;2023-05-08T03:37:37;99722.72;;;13.13;84.12
2681;BME280;1350;42.134;24.708;2023-05-08T03:40:07;99721.53;;;13.19;83.88
2681;BME280;1350;42.134;24.708;2023-05-08T03:42:35;99720.09;;;13.41;83.32
2681;BME280;1350;42.134;24.708;2023-05-08T03:45:03;99715.91;;;13.51;82.25
2681;BME280;1350;42.134;24.708;2023-05-08T03:47:31;99727.91;;;13.58;81.88
2681;BME280;1350;42.134;24.708;2023-05-08T03:49:59;99726.75;;;13.63;82.83
2681;BME280;1350;42.134;24.708;2023-05-08T03:52:26;99720.56;;;13.90;81.82
2681;BME280;1350;42.134;24.708;2023-05-08T03:54:54;99729.03;;;13.97;82.20
2681;BME280;1350;42.134;24.708;2023-05-08T03:57:26;99733.78;;;13.92;80.98
2681;BME280;1350;42.134;24.708;2023-05-08T04:00:02;99736.81;;;14.14;80.79
2681;BME280;1350;42.134;24.708;2023-05-08T04:02:36;99741.91;;;14.45;80.92
2681;BME280;1350;42.134;24.708;2023-05-08T04:05:12;99733.47;;;14.77;81.30
2681;BME280;1350;42.134;24.708;2023-05-08T04:07:46;99737.94;;;15.03;83.24
2681;BME280;1350;42.134;24.708;2023-05-08T04:10:20;99733.53;;;15.15;84.11
2681;BME280;1350;42.134;24.708;2023-05-08T04:12:56;99731.84;;;15.14;84.09
2681;BME280;1350;42.134;24.708;2023-05-08T04:15:28;99735.31;;;15.54;83.87
2681;BME280;1350;42.134;24.708;2023-05-08T04:17:58;99740.75;;;15.77;83.56
2681;BME280;1350;42.134;24.708;2023-05-08T04:20:30;99734.88;;;15.85;82.10
2681;BME280;1350;42.134;24.708;2023-05-08T04:22:57;99738.69;;;15.81;82.10
2681;BME280;1350;42.134;24.708;2023-05-08T04:25:24;99737.53;;;15.85;82.71
2681;BME280;1350;42.134;24.708;2023-05-08T04:27:53;99731.47;;;16.19;81.01
2681;BME280;1350;42.134;24.708;2023-05-08T04:30:22;99733.78;;;16.36;80.77
2681;BME280;1350;42.134;24.708;2023-05-08T04:32:49;99727.38;;;16.62;78.74
2681;BME280;1350;42.134;24.708;2023-05-08T04:35:17;99739.09;;;16.96;76.79
2681;BME280;1350;42.134;24.708;2023-05-08T04:37:44;99730.63;;;17.24;74.66
2681;BME280;1350;42.134;24.708;2023-05-08T04:40:11;99731.47;;;17.48;72.64
2681;BME280;1350;42.134;24.708;2023-05-08T04:42:38;99732.88;;;17.41;71.79
2681;BME280;1350;42.134;24.708;2023-05-08T04:45:09;99741.56;;;17.44;71.31
2681;BME280;1350;42.134;24.708;2023-05-08T04:47:36;99736.19;;;17.44;69.91
2681;BME280;1350;42.134;24.708;2023-05-08T04:50:03;99741.44;;;17.46;70.53
2681;BME280;1350;42.134;24.708;2023-05-08T04:52:30;99742.44;;;17.67;70.74
2681;BME280;1350;42.134;24.708;2023-05-08T04:54:56;99736.63;;;17.27;70.81
2681;BME280;1350;42.134;24.708;2023-05-08T04:57:23;99730.88;;;17.66;71.06
2681;BME280;1350;42.134;24.708;2023-05-08T04:59:50;99728.31;;;18.09;69.17
2681;BME280;1350;42.134;24.708;2023-05-08T05:02:18;99720.34;;;18.29;66.77
2681;BME280;1350;42.134;24.708;2023-05-08T05:04:45;99713.63;;;18.46;66.59
2681;BME280;1350;42.134;24.708;2023-05-08T05:07:11;99723.09;;;18.61;65.73
2681;BME280;1350;42.134;24.708;2023-05-08T05:09:38;99724.84;;;18.83;64.32
2681;BME280;1350;42.134;24.708;2023-05-08T05:12:05;99725.47;;;19.07;63.64
2681;BME280;1350;42.134;24.708;2023-05-08T05:14:32;99725.38;;;19.29;62.63
2681;BME280;1350;42.134;24.708;2023-05-08T05:16:59;99717.22;;;19.60;61.18
2681;BME280;1350;42.134;24.708;2023-05-08T05:19:27;99724.25;;;19.82;58.89
2681;BME280;1350;42.134;24.708;2023-05-08T05:21:54;99721.22;;;19.96;58.56
2681;BME280;1350;42.134;24.708;2023-05-08T05:24:20;99723.38;;;20.32;58.04
2681;BME280;1350;42.134;24.708;2023-05-08T05:26:47;99717.03;;;20.71;56.35
2681;BME280;1350;42.134;24.708;2023-05-08T05:29:14;99716.94;;;21.01;55.72
2681;BME280;1350;42.134;24.708;2023-05-08T05:31:40;99705.00;;;21.13;54.79
2681;BME280;1350;42.134;24.708;2023-05-08T05:34:07;99711.50;;;20.82;54.78
2681;BME280;1350;42.134;24.708;2023-05-08T05:36:36;99703.25;;;20.46;55.84
2681;BME280;1350;42.134;24.708;2023-05-08T05:39:02;99698.59;;;20.76;55.72
2681;BME280;1350;42.134;24.708;2023-05-08T05:41:29;99701.00;;;21.27;54.61
2681;BME280;1350;42.134;24.708;2023-05-08T05:43:56;99698.06;;;21.66;53.19
2681;BME280;1350;42.134;24.708;2023-05-08T05:46:22;99702.91;;;22.09;51.78
2681;BME280;1350;42.134;24.708;2023-05-08T05:48:55;99702.31;;;20.85;47.96
2681;BME280;1350;42.134;24.708;2023-05-08T05:51:22;99705.28;;;20.72;48.27
2681;BME280;1350;42.134;24.708;2023-05-08T05:53:50;99700.72;;;20.82;47.32
2681;BME280;1350;42.134;24.708;2023-05-08T05:56:16;99693.63;;;20.62;47.18
2681;BME280;1350;42.134;24.708;2023-05-08T05:58:43;99693.91;;;20.59;46.93
2681;BME280;1350;42.134;24.708;2023-05-08T06:01:10;99693.50;;;21.30;46.60
2681;BME280;1350;42.134;24.708;2023-05-08T06:03:37;99687.28;;;21.01;47.00
2681;BME280;1350;42.134;24.708;2023-05-08T06:06:03;99690.66;;;21.22;47.11
2681;BME280;1350;42.134;24.708;2023-05-08T06:08:30;99686.31;;;21.58;46.94
2681;BME280;1350;42.134;24.708;2023-05-08T06:10:58;99690.34;;;22.18;46.13
2681;BME280;1350;42.134;24.708;2023-05-08T06:13:25;99683.75;;;22.57;45.08
2681;BME280;1350;42.134;24.708;2023-05-08T06:15:53;99688.47;;;22.28;45.17
2681;BME280;1350;42.134;24.708;2023-05-08T06:18:21;99686.75;;;21.53;45.37
2681;BME280;1350;42.134;24.708;2023-05-08T06:20:48;99691.41;;;21.61;45.12
2681;BME280;1350;42.134;24.708;2023-05-08T06:23:15;99691.09;;;21.83;44.35
2681;BME280;1350;42.134;24.708;2023-05-08T06:25:41;99677.50;;;22.47;43.97
2681;BME280;1350;42.134;24.708;2023-05-08T06:28:10;99683.13;;;22.63;44.52
2681;BME280;1350;42.134;24.708;2023-05-08T06:30:36;99680.41;;;22.36;44.42
2681;BME280;1350;42.134;24.708;2023-05-08T06:33:03;99678.56;;;22.98;43.96
2681;BME280;1350;42.134;24.708;2023-05-08T06:35:30;99682.88;;;23.26;43.23
2681;BME280;1350;42.134;24.708;2023-05-08T06:37:56;99675.19;;;23.22;42.72
2681;BME280;1350;42.134;24.708;2023-05-08T06:40:25;99674.06;;;23.50;42.52
2681;BME280;1350;42.134;24.708;2023-05-08T06:42:52;99680.19;;;22.56;42.67
2681;BME280;1350;42.134;24.708;2023-05-08T06:45:20;99676.03;;;23.22;42.72
2681;BME280;1350;42.134;24.708;2023-05-08T06:47:47;99671.25;;;23.34;42.66
2681;BME280;1350;42.134;24.708;2023-05-08T06:50:13;99663.84;;;23.62;42.43
2681;BME280;1350;42.134;24.708;2023-05-08T06:52:40;99667.03;;;22.96;44.43
2681;BME280;1350;42.134;24.708;2023-05-08T06:55:07;99652.56;;;23.23;43.39
2681;BME280;1350;42.134;24.708;2023-05-08T06:57:34;99656.16;;;23.57;44.07
2681;BME280;1350;42.134;24.708;2023-05-08T07:00:01;99662.19;;;23.43;44.13
2681;BME280;1350;42.134;24.708;2023-05-08T07:02:30;99650.50;;;23.43;43.65
2681;BME280;1350;42.134;24.708;2023-05-08T07:04:56;99644.94;;;23.78;43.74
2681;BME280;1350;42.134;24.708;2023-05-08T07:07:23;99650.91;;;24.15;42.51
2681;BME280;1350;42.134;24.708;2023-05-08T07:09:50;99647.00;;;24.17;42.94
2681;BME280;1350;42.134;24.708;2023-05-08T07:12:16;99642.03;;;23.97;42.77
2681;BME280;1350;42.134;24.708;2023-05-08T07:14:44;99647.72;;;23.09;44.46
2681;BME280;1350;42.134;24.708;2023-05-08T07:17:10;99648.34;;;23.46;44.04
2681;BME280;1350;42.134;24.708;2023-05-08T07:19:39;99643.66;;;23.56;43.91
2681;BME280;1350;42.134;24.708;2023-05-08T07:22:05;99640.63;;;24.34;42.36
2681;BME280;1350;42.134;24.708;2023-05-08T07:24:32;99640.13;;;24.39;42.27
2681;BME280;1350;42.134;24.708;2023-05-08T07:26:59;99633.59;;;24.89;42.18
2681;BME280;1350;42.134;24.708;2023-05-08T07:29:26;99639.84;;;25.30;41.07
2681;BME280;1350;42.134;24.708;2023-05-08T07:31:53;99638.50;;;25.34;41.61
2681;BME280;1350;42.134;24.708;2023-05-08T07:34:20;99628.53;;;24.78;42.12
2681;BME280;1350;42.134;24.708;2023-05-08T07:36:48;99638.69;;;24.68;42.67
2681;BME280;1350;42.134;24.708;2023-05-08T07:39:15;99634.59;;;24.64;42.11
2681;BME280;1350;42.134;24.708;2023-05-08T07:41:42;99636.28;;;25.30;41.61
2681;BME280;1350;42.134;24.708;2023-05-08T07:44:10;99627.06;;;25.71;41.14
2681;BME280;1350;42.134;24.708;2023-05-08T07:46:37;99630.91;;;25.22;42.00
2681;BME280;1350;42.134;24.708;2023-05-08T07:49:03;99624.78;;;24.96;42.60
2681;BME280;1350;42.134;24.708;2023-05-08T07:51:30;99622.75;;;25.06;42.42
2681;BME280;1350;42.134;24.708;2023-05-08T07:53:58;99622.56;;;25.15;42.33
2681;BME280;1350;42.134;24.708;2023-05-08T07:56:25;99623.41;;;25.32;42.61
2681;BME280;1350;42.134;24.708;2023-05-08T07:58:53;99617.94;;;25.56;41.74
2681;BME280;1350;42.134;24.708;2023-05-08T08:01:19;99610.91;;;24.99;42.17
2681;BME280;1350;42.134;24.708;2023-05-08T08:03:47;99616.44;;;24.57;42.65
2681;BME280;1350;42.134;24.708;2023-05-08T08:06:13;99598.63;;;24.38;42.77
2681;BME280;1350;42.134;24.708;2023-05-08T08:08:40;99609.81;;;24.59;43.07
2681;BME280;1350;42.134;24.708;2023-05-08T08:11:09;99604.09;;;25.03;42.74
2681;BME280;1350;42.134;24.708;2023-05-08T08:13:36;99604.53;;;24.34;43.04
2681;BME280;1350;42.134;24.708;2023-05-08T08:16:04;99603.91;;;24.64;43.47
2681;BME280;1350;42.134;24.708;2023-05-08T08:18:33;99598.00;;;23.61;43.84
2681;BME280;1350;42.134;24.708;2023-05-08T08:21:00;99602.91;;;23.32;44.36
2681;BME280;1350;42.134;24.708;2023-05-08T08:23:27;99595.03;;;23.21;44.89
2681;BME280;1350;42.134;24.708;2023-05-08T08:25:55;99590.63;;;23.79;44.89
2681;BME280;1350;42.134;24.708;2023-05-08T08:28:23;99591.84;;;24.42;44.54
2681;BME280;1350;42.134;24.708;2023-05-08T08:30:50;99589.09;;;24.34;44.08
2681;BME280;1350;42.134;24.708;2023-05-08T08:33:17;99583.06;;;24.88;44.28
2681;BME280;1350;42.134;24.708;2023-05-08T08:35:44;99581.16;;;25.29;42.88
2681;BME280;1350;42.134;24.708;2023-05-08T08:38:10;99583.50;;;25.48;42.28
2681;BME280;1350;42.134;24.708;2023-05-08T08:40:38;99591.34;;;25.35;42.78
2681;BME280;1350;42.134;24.708;2023-05-08T08:43:05;99588.16;;;25.78;42.39
2681;BME280;1350;42.134;24.708;2023-05-08T08:45:35;99586.94;;;25.81;42.03
2681;BME280;1350;42.134;24.708;2023-05-08T08:48:02;99577.16;;;26.33;41.48
2681;BME280;1350;42.134;24.708;2023-05-08T08:50:30;99576.78;;;26.89;40.85
2681;BME280;1350;42.134;24.708;2023-05-08T08:53:04;99575.78;;;27.19;40.60
2681;BME280;1350;42.134;24.708;2023-05-08T08:55:34;99575.59;;;26.69;40.13
2681;BME280;1350;42.134;24.708;2023-05-08T08:58:12;99571.97;;;25.46;41.95
2681;BME280;1350;42.134;24.708;2023-05-08T09:00:41;99567.31;;;24.84;43.27
2681;BME280;1350;42.134;24.708;2023-05-08T09:03:08;99567.22;;;25.32;45.86
2681;BME280;1350;42.134;24.708;2023-05-08T09:05:35;99568.78;;;25.19;42.68
2681;BME280;1350;42.134;24.708;2023-05-08T09:08:03;99560.19;;;24.67;42.93
2681;BME280;1350;42.134;24.708;2023-05-08T09:10:31;99561.72;;;24.85;43.26
2681;BME280;1350;42.134;24.708;2023-05-08T09:12:58;99568.28;;;25.78;42.23
2681;BME280;1350;42.134;24.708;2023-05-08T09:15:24;99545.94;;;26.29;41.52
2681;BME280;1350;42.134;24.708;2023-05-08T09:17:53;99550.03;;;26.25;41.85
2681;BME280;1350;42.134;24.708;2023-05-08T09:20:20;99542.28;;;26.82;41.39
2681;BME280;1350;42.134;24.708;2023-05-08T09:22:47;99529.25;;;27.43;40.20
2681;BME280;1350;42.134;24.708;2023-05-08T09:25:14;99529.72;;;27.61;39.69
2681;BME280;1350;42.134;24.708;2023-05-08T09:27:42;99526.63;;;27.64;40.63
2681;BME280;1350;42.134;24.708;2023-05-08T09:30:11;99524.19;;;28.05;39.56
2681;BME280;1350;42.134;24.708;2023-05-08T09:32:40;99508.28;;;28.09;39.22
2681;BME280;1350;42.134;24.708;2023-05-08T09:35:10;99509.06;;;28.02;39.15
2681;BME280;1350;42.134;24.708;2023-05-08T09:37:37;99504.00;;;28.21;39.64
2681;BME280;1350;42.134;24.708;2023-05-08T09:40:22;99502.66;;;28.10;40.35
2681;BME280;1350;42.134;24.708;2023-05-08T09:42:49;99500.81;;;27.96;40.41
2681;BME280;1350;42.134;24.708;2023-05-08T09:45:26;99491.84;;;28.23;40.23
2681;BME280;1350;42.134;24.708;2023-05-08T09:47:53;99489.31;;;28.00;40.51
2681;BME280;1350;42.134;24.708;2023-05-08T09:50:21;99491.72;;;28.31;40.61
2681;BME280;1350;42.134;24.708;2023-05-08T09:52:49;99485.94;;;28.83;39.66
2681;BME280;1350;42.134;24.708;2023-05-08T09:55:21;99477.56;;;27.64;40.17
2681;BME280;1350;42.134;24.708;2023-05-08T09:57:52;99478.53;;;27.92;40.93
2681;BME280;1350;42.134;24.708;2023-05-08T10:00:21;99475.06;;;27.84;41.00
2681;BME280;1350;42.134;24.708;2023-05-08T10:02:56;99475.66;;;26.18;41.96
2681;BME280;1350;42.134;24.708;2023-05-08T10:05:26;99465.91;;;25.40;43.59
2681;BME280;1350;42.134;24.708;2023-05-08T10:07:54;99466.25;;;25.45;43.45
2681;BME280;1350;42.134;24.708;2023-05-08T10:10:22;99459.13;;;26.42;43.02
2681;BME280;1350;42.134;24.708;2023-05-08T10:12:52;99460.56;;;26.75;42.22
2681;BME280;1350;42.134;24.708;2023-05-08T10:15:19;99452.97;;;27.00;42.42
2681;BME280;1350;42.134;24.708;2023-05-08T10:17:53;99457.34;;;27.59;41.28
2681;BME280;1350;42.134;24.708;2023-05-08T10:20:22;99447.94;;;25.69;42.88
2681;BME280;1350;42.134;24.708;2023-05-08T10:22:53;99442.97;;;26.26;43.27
2681;BME280;1350;42.134;24.708;2023-05-08T10:25:22;99452.69;;;25.37;44.00
2681;BME280;1350;42.134;24.708;2023-05-08T10:27:54;99440.13;;;25.36;43.95
2681;BME280;1350;42.134;24.708;2023-05-08T10:30:25;99438.41;;;26.41;43.64
2681;BME280;1350;42.134;24.708;2023-05-08T10:32:52;99430.25;;;26.78;42.90
2681;BME280;1350;42.134;24.708;2023-05-08T10:35:20;99428.63;;;26.09;43.71
2681;BME280;1350;42.134;24.708;2023-05-08T10:37:48;99423.03;;;26.48;42.56
2681;BME280;1350;42.134;24.708;2023-05-08T10:40:17;99428.34;;;26.79;42.58
2681;BME280;1350;42.134;24.708;2023-05-08T10:42:46;99417.59;;;27.00;43.13
2681;BME280;1350;42.134;24.708;2023-05-08T10:45:13;99413.22;;;27.49;42.19
2681;BME280;1350;42.134;24.708;2023-05-08T10:47:47;99405.91;;;28.06;41.88
2681;BME280;1350;42.134;24.708;2023-05-08T10:50:41;99415.00;;;28.41;40.93
2681;BME280;1350;42.134;24.708;2023-05-08T10:53:12;99414.00;;;27.78;41.49
2681;BME280;1350;42.134;24.708;2023-05-08T10:55:45;99412.38;;;27.48;42.28
2681;BME280;1350;42.134;24.708;2023-05-08T10:58:14;99423.50;;;27.32;42.35
2681;BME280;1350;42.134;24.708;2023-05-08T11:01:11;99415.22;;;27.11;42.92
2681;BME280;1350;42.134;24.708;2023-05-08T11:03:40;99412.75;;;27.45;42.83
2681;BME280;1350;42.134;24.708;2023-05-08T11:06:07;99404.34;;;27.26;42.19
2681;BME280;1350;42.134;24.708;2023-05-08T11:08:43;99399.78;;;27.47;43.39
2681;BME280;1350;42.134;24.708;2023-05-08T11:11:16;99403.47;;;27.40;42.89
2681;BME280;1350;42.134;24.708;2023-05-08T11:13:49;99403.22;;;27.56;42.99
2681;BME280;1350;42.134;24.708;2023-05-08T11:16:17;99414.03;;;27.85;41.52
2681;BME280;1350;42.134;24.708;2023-05-08T11:19:17;99409.88;;;28.31;41.68
2681;BME280;1350;42.134;24.708;2023-05-08T11:24:49;99396.97;;;27.55;41.85
2681;BME280;1350;42.134;24.708;2023-05-08T11:27:30;99396.09;;;27.55;42.69
2681;BME280;1350;42.134;24.708;2023-05-08T11:30:19;99388.59;;;27.57;42.84
2681;BME280;1350;42.134;24.708;2023-05-08T11:33:11;99387.66;;;27.71;42.68
2681;BME280;1350;42.134;24.708;2023-05-08T11:35:44;99391.03;;;27.52;42.62
2681;BME280;1350;42.134;24.708;2023-05-08T11:38:16;99388.41;;;27.79;42.63
2681;BME280;1350;42.134;24.708;2023-05-08T11:40:54;99381.63;;;27.54;42.02
2681;BME280;1350;42.134;24.708;2023-05-08T11:46:13;99387.22;;;28.03;41.76
2681;BME280;1350;42.134;24.708;2023-05-08T11:48:40;99382.41;;;27.69;42.25
2681;BME280;1350;42.134;24.708;2023-05-08T11:51:07;99383.34;;;28.19;42.77
2681;BME280;1350;42.134;24.708;2023-05-08T11:53:35;99375.44;;;28.02;42.12
2681;BME280;1350;42.134;24.708;2023-05-08T11:56:02;99378.56;;;27.99;42.50
2681;BME280;1350;42.134;24.708;2023-05-08T11:58:32;99370.53;;;27.77;42.10
2681;BME280;1350;42.134;24.708;2023-05-08T12:01:01;99370.81;;;26.96;42.21
2681;BME280;1350;42.134;24.708;2023-05-08T12:03:28;99359.38;;;26.72;43.31
2681;BME280;1350;42.134;24.708;2023-05-08T12:05:56;99357.75;;;27.06;42.85
2681;BME280;1350;42.134;24.708;2023-05-08T12:08:23;99353.72;;;27.52;42.50
2681;BME280;1350;42.134;24.708;2023-05-08T12:10:50;99351.34;;;27.28;43.57
2681;BME280;1350;42.134;24.708;2023-05-08T12:13:18;99341.63;;;27.55;42.89
2681;BME280;1350;42.134;24.708;2023-05-08T12:15:48;99349.09;;;27.67;42.80
2681;BME280;1350;42.134;24.708;2023-05-08T12:18:16;99337.78;;;27.70;43.50
2681;BME280;1350;42.134;24.708;2023-05-08T12:20:43;99336.66;;;27.44;44.33
2681;BME280;1350;42.134;24.708;2023-05-08T12:23:10;99328.88;;;27.41;43.60
2681;BME280;1350;42.134;24.708;2023-05-08T12:25:38;99322.53;;;27.05;45.08
2681;BME280;1350;42.134;24.708;2023-05-08T12:28:05;99330.75;;;26.76;44.37
2681;BME280;1350;42.134;24.708;2023-05-08T12:30:32;99327.78;;;26.71;44.48
2681;BME280;1350;42.134;24.708;2023-05-08T12:33:01;99324.28;;;26.48;45.61
2681;BME280;1350;42.134;24.708;2023-05-08T12:35:29;99321.28;;;26.42;45.64
2681;BME280;1350;42.134;24.708;2023-05-08T12:37:59;99328.59;;;26.57;45.19
2681;BME280;1350;42.134;24.708;2023-05-08T12:40:29;99315.06;;;26.34;46.21
2681;BME280;1350;42.134;24.708;2023-05-08T12:42:56;99323.72;;;26.67;46.45
2681;BME280;1350;42.134;24.708;2023-05-08T12:45:24;99320.34;;;26.94;45.40
2681;BME280;1350;42.134;24.708;2023-05-08T12:47:52;99317.47;;;27.16;45.15
2681;BME280;1350;42.134;24.708;2023-05-08T12:50:20;99309.31;;;26.66;45.53
2681;BME280;1350;42.134;24.708;2023-05-08T12:52:47;99309.25;;;26.37;46.17
2681;BME280;1350;42.134;24.708;2023-05-08T12:55:22;99321.38;;;26.78;45.71
2681;BME280;1350;42.134;24.708;2023-05-08T12:57:58;99325.41;;;26.97;45.47
2681;BME280;1350;42.134;24.708;2023-05-08T13:00:25;99321.34;;;26.93;45.34
2681;BME280;1350;42.134;24.708;2023-05-08T13:02:59;99328.66;;;27.07;46.11
2681;BME280;1350;42.134;24.708;2023-05-08T13:05:27;99321.16;;;27.09;44.90
2681;BME280;1350;42.134;24.708;2023-05-08T13:07:58;99324.56;;;26.96;45.52
2681;BME280;1350;42.134;24.708;2023-05-08T13:10:25;99322.88;;;26.81;44.91
2681;BME280;1350;42.134;24.708;2023-05-08T13:12:52;99317.31;;;26.45;45.43
2681;BME280;1350;42.134;24.708;2023-05-08T13:15:18;99315.66;;;25.70;45.99
2681;BME280;1350;42.134;24.708;2023-05-08T13:17:45;99308.31;;;25.93;46.27
2681;BME280;1350;42.134;24.708;2023-05-08T13:20:12;99305.31;;;26.25;46.17
2681;BME280;1350;42.134;24.708;2023-05-08T13:22:40;99299.78;;;26.33;46.03
2681;BME280;1350;42.134;24.708;2023-05-08T13:25:08;99305.28;;;25.51;46.95
2681;BME280;1350;42.134;24.708;2023-05-08T13:27:35;99303.63;;;25.42;47.33
2681;BME280;1350;42.134;24.708;2023-05-08T13:30:01;99293.88;;;25.55;47.40